Meadville, PA

6:56 PM EST on January 30, 2015 (GMT -0500)
Port Meadville | Change Station
CLOSE
Current Station
Airport
Location: Meadville,
Elevation: 1401 ft
Nearby Weather Stations
Active Advisory: Winter Storm Watch Active Notice: Local Storm Report

Elev 1401 ft 41.63 °N, 80.21 °W | Updated 11 minutes ago

Overcast
Overcast
13 °F
Feels Like 2 °F
N
8
Wind Variable Wind from NW

Today
High -- | Low -- °F
--% Chance of Precip.
Yesterday
High -- | Low -- °F
Precip. -- in
7:34 AM 5:33 PM
Waxing Gibbous, 86% visible
Pressure 30.31 in
Visibility 1.5 miles
Clouds Few 1500 ft
Mostly Cloudy 2000 ft
Overcast 2700 ft
Windchill 2 °F
Dew Point 7 °F
Humidity 77%
Rainfall 0.04 in
Snow Depth Not available.
UV 0 out of 12
Pollen .10 out of 12
Air Quality Not available.
Flu Activity Not available.
SPECI KGKJ 302345Z AUTO 31007KT 1 1/2SM -SN FEW015 BKN020 OVC027 M11/M14 A3031 RMK AO2 P0000 T11061139 TSNO

More Conditions Fewer Conditions

Pressure 30.31 in
Visibility 1.5 miles
Clouds Few 1500 ft
Mostly Cloudy 2000 ft
Overcast 2700 ft
Windchill 2 °F
Dew Point 7 °F
Humidity 77%
Rainfall 0.04 in
Snow Depth Not available.
UV 0 out of 12
Pollen .10 out of 12
Air Quality Not available.
Flu Activity Not available.
SPECI KGKJ 302345Z AUTO 31007KT 1 1/2SM -SN FEW015 BKN020 OVC027 M11/M14 A3031 RMK AO2 P0000 T11061139 TSNO

More Conditions Fewer Conditions

10-Day Weather Forecast

Almanac

Astronomy

Jan. 30, 2015 Rise Set
Actual Time
Civil Twilight
Nautical Twilight
Astronomical Twilight
Moon
Length of Visible Light
Length of Day
Tomorrow will be .
, % of the Moon is Illuminated

Today's Extremes

State Highs State Lows

Community

WunderPhotos

Upload Photos

1,791,934 photos uploaded!

WunderBlogs® & News

Nearby

Air Quality

  Air Quality AQ Index Pollutant
Not available.

Snow Depth

Station Depth Elevation

Earthquake Activity

City Distance Mag. Time & Date
Minimum magnitude displayed is 2.5.

Coastal Water Temperatures

Place Temperature

Nearby Weather Stations